sensor_id;sensor_type;location;lat;lon;timestamp;P1;durP1;ratioP1;P2;durP2;ratioP2
21727;SDS011;11026;50.560;17.852;2022-10-16T00:01:39;30.38;;;20.58;;
21727;SDS011;11026;50.560;17.852;2022-10-16T00:04:07;30.27;;;21.67;;
21727;SDS011;11026;50.560;17.852;2022-10-16T00:06:35;29.63;;;21.05;;
21727;SDS011;11026;50.560;17.852;2022-10-16T00:09:02;31.58;;;21.95;;
21727;SDS011;11026;50.560;17.852;2022-10-16T00:11:31;32.10;;;22.80;;
21727;SDS011;11026;50.560;17.852;2022-10-16T00:14:01;29.58;;;22.13;;
21727;SDS011;11026;50.560;17.852;2022-10-16T00:16:31;28.90;;;22.25;;
21727;SDS011;11026;50.560;17.852;2022-10-16T00:19:01;32.03;;;22.63;;
21727;SDS011;11026;50.560;17.852;2022-10-16T00:21:29;45.30;;;27.50;;
21727;SDS011;11026;50.560;17.852;2022-10-16T00:23:58;32.42;;;23.33;;
21727;SDS011;11026;50.560;17.852;2022-10-16T00:26:29;33.53;;;23.25;;
21727;SDS011;11026;50.560;17.852;2022-10-16T00:31:31;34.17;;;23.35;;
21727;SDS011;11026;50.560;17.852;2022-10-16T00:33:58;29.30;;;21.27;;
21727;SDS011;11026;50.560;17.852;2022-10-16T00:36:25;33.95;;;22.50;;
21727;SDS011;11026;50.560;17.852;2022-10-16T00:38:56;36.03;;;25.60;;
21727;SDS011;11026;50.560;17.852;2022-10-16T00:41:31;34.03;;;23.55;;
21727;SDS011;11026;50.560;17.852;2022-10-16T00:44:02;29.70;;;22.50;;
21727;SDS011;11026;50.560;17.852;2022-10-16T00:46:40;32.38;;;22.88;;
21727;SDS011;11026;50.560;17.852;2022-10-16T00:49:09;35.88;;;23.77;;
21727;SDS011;11026;50.560;17.852;2022-10-16T00:51:39;35.13;;;24.10;;
21727;SDS011;11026;50.560;17.852;2022-10-16T00:54:16;33.45;;;22.10;;
21727;SDS011;11026;50.560;17.852;2022-10-16T00:56:47;33.58;;;22.85;;
21727;SDS011;11026;50.560;17.852;2022-10-16T01:01:49;42.80;;;27.42;;
21727;SDS011;11026;50.560;17.852;2022-10-16T01:04:17;32.85;;;23.33;;
21727;SDS011;11026;50.560;17.852;2022-10-16T01:06:55;31.75;;;22.08;;
21727;SDS011;11026;50.560;17.852;2022-10-16T01:12:23;30.17;;;23.23;;
21727;SDS011;11026;50.560;17.852;2022-10-16T01:20:32;30.00;;;23.13;;
21727;SDS011;11026;50.560;17.852;2022-10-16T01:23:05;31.38;;;22.38;;
21727;SDS011;11026;50.560;17.852;2022-10-16T01:25:49;33.80;;;23.30;;
21727;SDS011;11026;50.560;17.852;2022-10-16T01:28:34;29.67;;;21.75;;
21727;SDS011;11026;50.560;17.852;2022-10-16T01:31:11;31.77;;;23.38;;
21727;SDS011;11026;50.560;17.852;2022-10-16T01:33:43;32.10;;;22.83;;
21727;SDS011;11026;50.560;17.852;2022-10-16T01:36:25;30.65;;;22.17;;
21727;SDS011;11026;50.560;17.852;2022-10-16T01:38:59;33.20;;;23.55;;
21727;SDS011;11026;50.560;17.852;2022-10-16T01:41:33;31.98;;;23.02;;
21727;SDS011;11026;50.560;17.852;2022-10-16T01:44:17;30.23;;;22.60;;
21727;SDS011;11026;50.560;17.852;2022-10-16T01:46:50;35.33;;;23.52;;
21727;SDS011;11026;50.560;17.852;2022-10-16T01:49:20;32.17;;;22.90;;
21727;SDS011;11026;50.560;17.852;2022-10-16T01:51:50;37.00;;;25.13;;
21727;SDS011;11026;50.560;17.852;2022-10-16T01:54:21;33.28;;;24.20;;
21727;SDS011;11026;50.560;17.852;2022-10-16T01:56:52;34.45;;;24.17;;
21727;SDS011;11026;50.560;17.852;2022-10-16T01:59:22;34.58;;;24.50;;
21727;SDS011;11026;50.560;17.852;2022-10-16T02:01:53;34.45;;;25.48;;
21727;SDS011;11026;50.560;17.852;2022-10-16T02:04:27;35.25;;;24.70;;
21727;SDS011;11026;50.560;17.852;2022-10-16T02:07:01;34.85;;;23.77;;
21727;SDS011;11026;50.560;17.852;2022-10-16T02:09:29;34.55;;;23.35;;
21727;SDS011;11026;50.560;17.852;2022-10-16T02:12:01;33.60;;;22.45;;
21727;SDS011;11026;50.560;17.852;2022-10-16T02:14:33;33.72;;;24.83;;
21727;SDS011;11026;50.560;17.852;2022-10-16T02:17:09;35.20;;;23.65;;
21727;SDS011;11026;50.560;17.852;2022-10-16T02:19:38;35.05;;;23.77;;
21727;SDS011;11026;50.560;17.852;2022-10-16T02:22:06;33.88;;;24.02;;
21727;SDS011;11026;50.560;17.852;2022-10-16T02:24:50;33.22;;;24.13;;
21727;SDS011;11026;50.560;17.852;2022-10-16T02:35:23;36.55;;;24.95;;
21727;SDS011;11026;50.560;17.852;2022-10-16T02:37:51;35.95;;;24.95;;
21727;SDS011;11026;50.560;17.852;2022-10-16T02:40:20;35.40;;;25.25;;
21727;SDS011;11026;50.560;17.852;2022-10-16T02:42:54;35.50;;;24.20;;
21727;SDS011;11026;50.560;17.852;2022-10-16T02:45:22;41.67;;;23.33;;
21727;SDS011;11026;50.560;17.852;2022-10-16T02:47:52;34.60;;;23.85;;
21727;SDS011;11026;50.560;17.852;2022-10-16T02:50:19;35.95;;;25.02;;
21727;SDS011;11026;50.560;17.852;2022-10-16T02:52:46;39.58;;;25.67;;
21727;SDS011;11026;50.560;17.852;2022-10-16T02:55:13;35.45;;;22.92;;
21727;SDS011;11026;50.560;17.852;2022-10-16T02:57:41;36.17;;;23.92;;
21727;SDS011;11026;50.560;17.852;2022-10-16T03:00:12;37.80;;;24.58;;
21727;SDS011;11026;50.560;17.852;2022-10-16T03:02:43;36.08;;;22.58;;
21727;SDS011;11026;50.560;17.852;2022-10-16T03:05:10;38.58;;;25.80;;
21727;SDS011;11026;50.560;17.852;2022-10-16T03:07:37;35.38;;;24.33;;
21727;SDS011;11026;50.560;17.852;2022-10-16T03:10:06;34.92;;;24.08;;
21727;SDS011;11026;50.560;17.852;2022-10-16T03:12:39;35.90;;;23.90;;
21727;SDS011;11026;50.560;17.852;2022-10-16T03:15:06;37.97;;;26.17;;
21727;SDS011;11026;50.560;17.852;2022-10-16T03:17:36;37.17;;;25.83;;
21727;SDS011;11026;50.560;17.852;2022-10-16T03:20:03;34.72;;;24.23;;
21727;SDS011;11026;50.560;17.852;2022-10-16T03:22:30;38.50;;;25.40;;
21727;SDS011;11026;50.560;17.852;2022-10-16T03:24:57;39.35;;;25.42;;
21727;SDS011;11026;50.560;17.852;2022-10-16T03:27:25;38.53;;;26.08;;
21727;SDS011;11026;50.560;17.852;2022-10-16T03:29:53;50.97;;;29.20;;
21727;SDS011;11026;50.560;17.852;2022-10-16T03:32:19;38.33;;;25.52;;
21727;SDS011;11026;50.560;17.852;2022-10-16T03:34:47;37.58;;;25.80;;
21727;SDS011;11026;50.560;17.852;2022-10-16T03:37:14;36.45;;;26.45;;
21727;SDS011;11026;50.560;17.852;2022-10-16T03:39:41;36.85;;;27.33;;
21727;SDS011;11026;50.560;17.852;2022-10-16T03:42:09;40.97;;;27.52;;
21727;SDS011;11026;50.560;17.852;2022-10-16T03:44:36;51.83;;;30.70;;
21727;SDS011;11026;50.560;17.852;2022-10-16T03:47:05;41.00;;;27.45;;
21727;SDS011;11026;50.560;17.852;2022-10-16T03:49:32;40.95;;;27.55;;
21727;SDS011;11026;50.560;17.852;2022-10-16T03:51:59;39.88;;;26.48;;
21727;SDS011;11026;50.560;17.852;2022-10-16T03:54:26;39.60;;;25.55;;
21727;SDS011;11026;50.560;17.852;2022-10-16T03:56:53;39.35;;;27.50;;
21727;SDS011;11026;50.560;17.852;2022-10-16T03:59:20;42.90;;;28.80;;
21727;SDS011;11026;50.560;17.852;2022-10-16T04:01:47;42.97;;;26.80;;
21727;SDS011;11026;50.560;17.852;2022-10-16T04:04:13;41.00;;;28.10;;
21727;SDS011;11026;50.560;17.852;2022-10-16T04:06:40;42.78;;;26.38;;
21727;SDS011;11026;50.560;17.852;2022-10-16T04:09:07;44.40;;;29.98;;
21727;SDS011;11026;50.560;17.852;2022-10-16T04:11:34;42.72;;;29.20;;
21727;SDS011;11026;50.560;17.852;2022-10-16T04:14:01;47.90;;;30.83;;
21727;SDS011;11026;50.560;17.852;2022-10-16T04:16:29;40.80;;;28.55;;
21727;SDS011;11026;50.560;17.852;2022-10-16T04:18:57;42.25;;;26.77;;
21727;SDS011;11026;50.560;17.852;2022-10-16T04:21:26;42.90;;;29.92;;
21727;SDS011;11026;50.560;17.852;2022-10-16T04:23:53;43.58;;;30.80;;
21727;SDS011;11026;50.560;17.852;2022-10-16T04:26:20;48.67;;;31.65;;
21727;SDS011;11026;50.560;17.852;2022-10-16T04:28:48;48.60;;;31.58;;
21727;SDS011;11026;50.560;17.852;2022-10-16T04:31:15;45.25;;;32.22;;
21727;SDS011;11026;50.560;17.852;2022-10-16T04:33:42;49.72;;;31.60;;
21727;SDS011;11026;50.560;17.852;2022-10-16T04:36:10;47.08;;;31.65;;
21727;SDS011;11026;50.560;17.852;2022-10-16T04:38:37;51.88;;;33.90;;
21727;SDS011;11026;50.560;17.852;2022-10-16T04:41:06;45.28;;;32.92;;
21727;SDS011;11026;50.560;17.852;2022-10-16T04:43:34;50.45;;;34.35;;
21727;SDS011;11026;50.560;17.852;2022-10-16T04:46:02;47.90;;;32.97;;
21727;SDS011;11026;50.560;17.852;2022-10-16T04:48:32;47.50;;;33.33;;
21727;SDS011;11026;50.560;17.852;2022-10-16T04:51:06;48.75;;;34.30;;
21727;SDS011;11026;50.560;17.852;2022-10-16T04:53:34;49.15;;;34.10;;
21727;SDS011;11026;50.560;17.852;2022-10-16T04:56:02;42.60;;;28.85;;
21727;SDS011;11026;50.560;17.852;2022-10-16T04:58:29;54.35;;;36.38;;
21727;SDS011;11026;50.560;17.852;2022-10-16T05:00:57;43.97;;;33.13;;
21727;SDS011;11026;50.560;17.852;2022-10-16T05:03:24;46.05;;;33.03;;
21727;SDS011;11026;50.560;17.852;2022-10-16T05:05:52;49.00;;;33.72;;
21727;SDS011;11026;50.560;17.852;2022-10-16T05:08:19;51.33;;;33.35;;
21727;SDS011;11026;50.560;17.852;2022-10-16T05:10:46;47.17;;;34.08;;
21727;SDS011;11026;50.560;17.852;2022-10-16T05:13:13;48.65;;;32.67;;
21727;SDS011;11026;50.560;17.852;2022-10-16T05:15:41;46.17;;;33.83;;
21727;SDS011;11026;50.560;17.852;2022-10-16T05:18:08;49.80;;;33.15;;
21727;SDS011;11026;50.560;17.852;2022-10-16T05:20:35;46.45;;;31.50;;
21727;SDS011;11026;50.560;17.852;2022-10-16T05:23:02;45.60;;;33.80;;
21727;SDS011;11026;50.560;17.852;2022-10-16T05:25:29;50.22;;;34.58;;
21727;SDS011;11026;50.560;17.852;2022-10-16T05:27:56;48.30;;;31.67;;
21727;SDS011;11026;50.560;17.852;2022-10-16T05:30:23;44.75;;;34.03;;
21727;SDS011;11026;50.560;17.852;2022-10-16T05:32:52;48.53;;;34.10;;
21727;SDS011;11026;50.560;17.852;2022-10-16T05:35:20;49.83;;;33.72;;
21727;SDS011;11026;50.560;17.852;2022-10-16T05:37:47;50.00;;;34.13;;
21727;SDS011;11026;50.560;17.852;2022-10-16T05:40:14;44.42;;;31.58;;
21727;SDS011;11026;50.560;17.852;2022-10-16T05:42:42;50.55;;;34.90;;
21727;SDS011;11026;50.560;17.852;2022-10-16T05:45:10;46.90;;;32.78;;
21727;SDS011;11026;50.560;17.852;2022-10-16T05:47:38;47.65;;;33.17;;
21727;SDS011;11026;50.560;17.852;2022-10-16T05:50:06;45.53;;;35.20;;
21727;SDS011;11026;50.560;17.852;2022-10-16T05:52:34;48.88;;;35.95;;
21727;SDS011;11026;50.560;17.852;2022-10-16T05:55:01;48.58;;;34.05;;
21727;SDS011;11026;50.560;17.852;2022-10-16T05:57:28;47.15;;;31.67;;
21727;SDS011;11026;50.560;17.852;2022-10-16T05:59:56;45.85;;;34.20;;
21727;SDS011;11026;50.560;17.852;2022-10-16T06:02:23;51.17;;;35.63;;
21727;SDS011;11026;50.560;17.852;2022-10-16T06:04:51;48.50;;;34.55;;
21727;SDS011;11026;50.560;17.852;2022-10-16T06:07:20;51.38;;;35.70;;
21727;SDS011;11026;50.560;17.852;2022-10-16T06:09:51;48.30;;;35.83;;
21727;SDS011;11026;50.560;17.852;2022-10-16T06:12:19;46.42;;;35.80;;
21727;SDS011;11026;50.560;17.852;2022-10-16T06:14:46;50.30;;;36.20;;
21727;SDS011;11026;50.560;17.852;2022-10-16T06:17:13;50.70;;;36.55;;
21727;SDS011;11026;50.560;17.852;2022-10-16T06:19:41;50.00;;;35.42;;
21727;SDS011;11026;50.560;17.852;2022-10-16T06:22:08;45.15;;;34.38;;
21727;SDS011;11026;50.560;17.852;2022-10-16T06:24:35;49.03;;;34.95;;
21727;SDS011;11026;50.560;17.852;2022-10-16T06:27:03;47.60;;;31.95;;
21727;SDS011;11026;50.560;17.852;2022-10-16T06:29:32;45.78;;;33.60;;
21727;SDS011;11026;50.560;17.852;2022-10-16T06:32:00;46.05;;;32.67;;
21727;SDS011;11026;50.560;17.852;2022-10-16T06:34:27;44.83;;;33.65;;
21727;SDS011;11026;50.560;17.852;2022-10-16T06:36:54;43.92;;;32.40;;
21727;SDS011;11026;50.560;17.852;2022-10-16T06:39:22;42.08;;;31.48;;
21727;SDS011;11026;50.560;17.852;2022-10-16T06:41:49;40.97;;;29.45;;
21727;SDS011;11026;50.560;17.852;2022-10-16T06:44:16;43.90;;;31.20;;
21727;SDS011;11026;50.560;17.852;2022-10-16T06:46:43;40.17;;;29.02;;
21727;SDS011;11026;50.560;17.852;2022-10-16T06:49:10;39.47;;;28.80;;
21727;SDS011;11026;50.560;17.852;2022-10-16T06:51:37;43.97;;;29.00;;
21727;SDS011;11026;50.560;17.852;2022-10-16T06:54:08;37.83;;;26.95;;
21727;SDS011;11026;50.560;17.852;2022-10-16T06:56:36;37.60;;;28.63;;
21727;SDS011;11026;50.560;17.852;2022-10-16T06:59:04;36.03;;;27.15;;
21727;SDS011;11026;50.560;17.852;2022-10-16T07:01:31;37.40;;;27.92;;
21727;SDS011;11026;50.560;17.852;2022-10-16T07:03:59;33.65;;;26.85;;
21727;SDS011;11026;50.560;17.852;2022-10-16T07:06:30;34.13;;;25.92;;
21727;SDS011;11026;50.560;17.852;2022-10-16T07:08:58;32.53;;;24.88;;
21727;SDS011;11026;50.560;17.852;2022-10-16T07:11:28;38.13;;;26.23;;
21727;SDS011;11026;50.560;17.852;2022-10-16T07:13:56;35.17;;;25.23;;
21727;SDS011;11026;50.560;17.852;2022-10-16T07:16:24;33.47;;;24.73;;
21727;SDS011;11026;50.560;17.852;2022-10-16T07:18:55;28.75;;;23.20;;
21727;SDS011;11026;50.560;17.852;2022-10-16T07:21:31;30.33;;;24.23;;
21727;SDS011;11026;50.560;17.852;2022-10-16T07:24:02;34.67;;;22.02;;
21727;SDS011;11026;50.560;17.852;2022-10-16T07:26:32;29.15;;;21.90;;
21727;SDS011;11026;50.560;17.852;2022-10-16T07:29:01;30.63;;;21.92;;
21727;SDS011;11026;50.560;17.852;2022-10-16T07:31:30;30.33;;;22.80;;
21727;SDS011;11026;50.560;17.852;2022-10-16T07:33:58;28.35;;;21.30;;
21727;SDS011;11026;50.560;17.852;2022-10-16T07:36:26;26.80;;;18.92;;
21727;SDS011;11026;50.560;17.852;2022-10-16T07:38:53;26.25;;;19.98;;
21727;SDS011;11026;50.560;17.852;2022-10-16T07:41:25;29.15;;;21.25;;
21727;SDS011;11026;50.560;17.852;2022-10-16T07:43:52;26.92;;;18.70;;
21727;SDS011;11026;50.560;17.852;2022-10-16T07:46:22;24.90;;;18.70;;
21727;SDS011;11026;50.560;17.852;2022-10-16T07:48:49;22.65;;;18.35;;
21727;SDS011;11026;50.560;17.852;2022-10-16T07:51:21;24.00;;;19.27;;
21727;SDS011;11026;50.560;17.852;2022-10-16T07:53:50;29.58;;;20.80;;
21727;SDS011;11026;50.560;17.852;2022-10-16T07:56:19;34.95;;;22.75;;
21727;SDS011;11026;50.560;17.852;2022-10-16T07:58:47;27.38;;;20.90;;
21727;SDS011;11026;50.560;17.852;2022-10-16T08:01:17;24.98;;;19.02;;
21727;SDS011;11026;50.560;17.852;2022-10-16T08:03:46;27.95;;;18.58;;
21727;SDS011;11026;50.560;17.852;2022-10-16T08:06:16;22.10;;;16.90;;
21727;SDS011;11026;50.560;17.852;2022-10-16T08:08:50;24.55;;;19.40;;
21727;SDS011;11026;50.560;17.852;2022-10-16T08:11:17;25.50;;;19.58;;
21727;SDS011;11026;50.560;17.852;2022-10-16T08:13:44;25.50;;;18.85;;
21727;SDS011;11026;50.560;17.852;2022-10-16T08:16:11;24.27;;;18.73;;
21727;SDS011;11026;50.560;17.852;2022-10-16T08:18:39;20.90;;;18.40;;
21727;SDS011;11026;50.560;17.852;2022-10-16T08:21:08;24.40;;;18.17;;
21727;SDS011;11026;50.560;17.852;2022-10-16T08:23:46;23.17;;;18.42;;
21727;SDS011;11026;50.560;17.852;2022-10-16T08:26:22;22.50;;;18.33;;
21727;SDS011;11026;50.560;17.852;2022-10-16T08:28:49;23.88;;;17.23;;
21727;SDS011;11026;50.560;17.852;2022-10-16T08:31:18;22.60;;;17.48;;
21727;SDS011;11026;50.560;17.852;2022-10-16T08:33:47;23.85;;;17.48;;
21727;SDS011;11026;50.560;17.852;2022-10-16T08:36:15;22.23;;;17.25;;
21727;SDS011;11026;50.560;17.852;2022-10-16T08:38:42;21.35;;;17.90;;
21727;SDS011;11026;50.560;17.852;2022-10-16T08:46:47;21.95;;;17.42;;
21727;SDS011;11026;50.560;17.852;2022-10-16T08:49:24;20.80;;;17.98;;
21727;SDS011;11026;50.560;17.852;2022-10-16T08:51:51;20.05;;;16.80;;
21727;SDS011;11026;50.560;17.852;2022-10-16T08:57:01;20.10;;;16.55;;
21727;SDS011;11026;50.560;17.852;2022-10-16T08:59:45;19.83;;;16.40;;
21727;SDS011;11026;50.560;17.852;2022-10-16T09:02:55;28.77;;;19.13;;
21727;SDS011;11026;50.560;17.852;2022-10-16T09:05:10;22.33;;;16.00;;
21727;SDS011;11026;50.560;17.852;2022-10-16T09:10:38;20.65;;;16.52;;
21727;SDS011;11026;50.560;17.852;2022-10-16T09:13:21;19.52;;;15.73;;
21727;SDS011;11026;50.560;17.852;2022-10-16T09:19:22;18.35;;;15.40;;
21727;SDS011;11026;50.560;17.852;2022-10-16T09:22:10;24.10;;;17.17;;
21727;SDS011;11026;50.560;17.852;2022-10-16T09:24:41;29.83;;;19.03;;
21727;SDS011;11026;50.560;17.852;2022-10-16T09:27:12;21.00;;;15.73;;
21727;SDS011;11026;50.560;17.852;2022-10-16T09:29:42;19.15;;;15.18;;
21727;SDS011;11026;50.560;17.852;2022-10-16T09:32:14;18.75;;;13.65;;
21727;SDS011;11026;50.560;17.852;2022-10-16T09:37:17;18.25;;;14.57;;
21727;SDS011;11026;50.560;17.852;2022-10-16T09:39:50;17.23;;;14.05;;
21727;SDS011;11026;50.560;17.852;2022-10-16T09:42:19;15.90;;;13.27;;
21727;SDS011;11026;50.560;17.852;2022-10-16T09:44:50;19.27;;;14.18;;
21727;SDS011;11026;50.560;17.852;2022-10-16T09:47:23;14.40;;;12.68;;
21727;SDS011;11026;50.560;17.852;2022-10-16T09:50:00;16.15;;;13.73;;
21727;SDS011;11026;50.560;17.852;2022-10-16T09:52:30;16.20;;;12.95;;
21727;SDS011;11026;50.560;17.852;2022-10-16T09:55:00;16.55;;;13.00;;
21727;SDS011;11026;50.560;17.852;2022-10-16T09:57:52;19.23;;;14.90;;
21727;SDS011;11026;50.560;17.852;2022-10-16T10:00:21;16.10;;;12.40;;
21727;SDS011;11026;50.560;17.852;2022-10-16T10:02:49;17.55;;;14.32;;
21727;SDS011;11026;50.560;17.852;2022-10-16T10:05:21;15.18;;;13.40;;
21727;SDS011;11026;50.560;17.852;2022-10-16T10:08:01;18.55;;;14.50;;
21727;SDS011;11026;50.560;17.852;2022-10-16T10:10:36;20.52;;;13.23;;
21727;SDS011;11026;50.560;17.852;2022-10-16T10:13:18;16.27;;;14.50;;
21727;SDS011;11026;50.560;17.852;2022-10-16T10:15:46;19.70;;;15.38;;
21727;SDS011;11026;50.560;17.852;2022-10-16T10:18:15;23.80;;;15.00;;
21727;SDS011;11026;50.560;17.852;2022-10-16T10:20:45;22.17;;;15.07;;
21727;SDS011;11026;50.560;17.852;2022-10-16T10:23:29;18.48;;;15.43;;
21727;SDS011;11026;50.560;17.852;2022-10-16T10:40:11;18.70;;;15.50;;
21727;SDS011;11026;50.560;17.852;2022-10-16T10:43:01;16.87;;;14.60;;
21727;SDS011;11026;50.560;17.852;2022-10-16T10:45:47;20.30;;;15.50;;
21727;SDS011;11026;50.560;17.852;2022-10-16T10:51:18;18.20;;;14.55;;
21727;SDS011;11026;50.560;17.852;2022-10-16T10:56:57;18.02;;;14.90;;
21727;SDS011;11026;50.560;17.852;2022-10-16T11:02:24;17.05;;;15.23;;
21727;SDS011;11026;50.560;17.852;2022-10-16T11:10:40;17.70;;;14.27;;
21727;SDS011;11026;50.560;17.852;2022-10-16T11:15:58;17.75;;;14.23;;
21727;SDS011;11026;50.560;17.852;2022-10-16T11:21:27;16.90;;;14.65;;
21727;SDS011;11026;50.560;17.852;2022-10-16T11:24:14;17.13;;;14.60;;
21727;SDS011;11026;50.560;17.852;2022-10-16T11:26:47;17.30;;;14.65;;
21727;SDS011;11026;50.560;17.852;2022-10-16T11:29:20;18.48;;;13.98;;
21727;SDS011;11026;50.560;17.852;2022-10-16T11:31:55;16.48;;;14.45;;
21727;SDS011;11026;50.560;17.852;2022-10-16T11:34:32;17.40;;;14.48;;
21727;SDS011;11026;50.560;17.852;2022-10-16T11:37:10;15.75;;;13.48;;
21727;SDS011;11026;50.560;17.852;2022-10-16T11:39:40;18.52;;;15.13;;
21727;SDS011;11026;50.560;17.852;2022-10-16T11:42:16;20.25;;;14.50;;
21727;SDS011;11026;50.560;17.852;2022-10-16T11:44:57;25.25;;;16.63;;
21727;SDS011;11026;50.560;17.852;2022-10-16T11:47:41;17.45;;;14.38;;
21727;SDS011;11026;50.560;17.852;2022-10-16T11:50:36;17.67;;;14.63;;
21727;SDS011;11026;50.560;17.852;2022-10-16T11:55:51;17.60;;;14.52;;
21727;SDS011;11026;50.560;17.852;2022-10-16T11:58:32;17.85;;;14.93;;
21727;SDS011;11026;50.560;17.852;2022-10-16T12:01:22;15.45;;;13.73;;
21727;SDS011;11026;50.560;17.852;2022-10-16T12:09:32;17.45;;;14.45;;
21727;SDS011;11026;50.560;17.852;2022-10-16T12:12:03;18.85;;;15.52;;
21727;SDS011;11026;50.560;17.852;2022-10-16T12:17:24;18.67;;;15.52;;
21727;SDS011;11026;50.560;17.852;2022-10-16T12:23:01;17.27;;;15.48;;
21727;SDS011;11026;50.560;17.852;2022-10-16T12:25:35;19.80;;;15.30;;
21727;SDS011;11026;50.560;17.852;2022-10-16T12:30:41;17.10;;;14.68;;
21727;SDS011;11026;50.560;17.852;2022-10-16T12:33:22;17.48;;;15.02;;
21727;SDS011;11026;50.560;17.852;2022-10-16T12:35:54;17.75;;;15.27;;
21727;SDS011;11026;50.560;17.852;2022-10-16T12:41:12;18.73;;;15.65;;
21727;SDS011;11026;50.560;17.852;2022-10-16T12:43:50;20.27;;;16.25;;
21727;SDS011;11026;50.560;17.852;2022-10-16T12:48:44;19.10;;;17.00;;
21727;SDS011;11026;50.560;17.852;2022-10-16T12:59:12;21.25;;;17.10;;
21727;SDS011;11026;50.560;17.852;2022-10-16T13:01:48;22.70;;;17.80;;
21727;SDS011;11026;50.560;17.852;2022-10-16T13:10:26;19.75;;;17.45;;
21727;SDS011;11026;50.560;17.852;2022-10-16T13:13:12;21.38;;;18.50;;
21727;SDS011;11026;50.560;17.852;2022-10-16T13:18:44;21.00;;;18.30;;
21727;SDS011;11026;50.560;17.852;2022-10-16T13:24:14;18.58;;;16.58;;
21727;SDS011;11026;50.560;17.852;2022-10-16T13:29:37;19.77;;;16.55;;
21727;SDS011;11026;50.560;17.852;2022-10-16T13:32:08;19.67;;;15.98;;
21727;SDS011;11026;50.560;17.852;2022-10-16T13:34:45;18.95;;;16.92;;
21727;SDS011;11026;50.560;17.852;2022-10-16T13:37:18;18.23;;;16.33;;
21727;SDS011;11026;50.560;17.852;2022-10-16T13:39:47;20.17;;;16.50;;
21727;SDS011;11026;50.560;17.852;2022-10-16T13:44:56;19.73;;;16.48;;
21727;SDS011;11026;50.560;17.852;2022-10-16T13:47:24;19.85;;;16.58;;
21727;SDS011;11026;50.560;17.852;2022-10-16T13:50:00;18.50;;;16.52;;
21727;SDS011;11026;50.560;17.852;2022-10-16T13:52:41;18.33;;;16.27;;
21727;SDS011;11026;50.560;17.852;2022-10-16T13:57:44;17.88;;;15.90;;
21727;SDS011;11026;50.560;17.852;2022-10-16T14:00:21;19.13;;;16.33;;
21727;SDS011;11026;50.560;17.852;2022-10-16T14:05:18;20.75;;;18.02;;
21727;SDS011;11026;50.560;17.852;2022-10-16T14:07:47;20.70;;;17.70;;
21727;SDS011;11026;50.560;17.852;2022-10-16T14:10:22;19.52;;;17.42;;
21727;SDS011;11026;50.560;17.852;2022-10-16T14:13:04;20.13;;;17.50;;
21727;SDS011;11026;50.560;17.852;2022-10-16T14:15:34;20.95;;;16.63;;
21727;SDS011;11026;50.560;17.852;2022-10-16T14:18:02;24.60;;;17.77;;
21727;SDS011;11026;50.560;17.852;2022-10-16T14:20:31;22.52;;;17.77;;
21727;SDS011;11026;50.560;17.852;2022-10-16T14:23:03;21.55;;;18.17;;
21727;SDS011;11026;50.560;17.852;2022-10-16T14:25:45;20.55;;;17.05;;
21727;SDS011;11026;50.560;17.852;2022-10-16T14:33:31;20.05;;;17.10;;
21727;SDS011;11026;50.560;17.852;2022-10-16T14:36:01;22.30;;;17.42;;
21727;SDS011;11026;50.560;17.852;2022-10-16T14:38:31;19.08;;;16.60;;
21727;SDS011;11026;50.560;17.852;2022-10-16T14:40:59;21.10;;;15.95;;
21727;SDS011;11026;50.560;17.852;2022-10-16T14:46:00;17.33;;;15.52;;
21727;SDS011;11026;50.560;17.852;2022-10-16T14:48:29;20.40;;;15.88;;
21727;SDS011;11026;50.560;17.852;2022-10-16T14:50:56;18.20;;;16.30;;
21727;SDS011;11026;50.560;17.852;2022-10-16T14:53:23;19.58;;;16.23;;
21727;SDS011;11026;50.560;17.852;2022-10-16T14:55:50;18.38;;;16.48;;
21727;SDS011;11026;50.560;17.852;2022-10-16T14:58:21;19.05;;;15.05;;
21727;SDS011;11026;50.560;17.852;2022-10-16T15:00:49;19.30;;;16.10;;
21727;SDS011;11026;50.560;17.852;2022-10-16T15:03:17;18.20;;;15.10;;
21727;SDS011;11026;50.560;17.852;2022-10-16T15:05:44;18.80;;;16.80;;
21727;SDS011;11026;50.560;17.852;2022-10-16T15:08:11;18.95;;;16.88;;
21727;SDS011;11026;50.560;17.852;2022-10-16T15:13:13;20.00;;;17.40;;
21727;SDS011;11026;50.560;17.852;2022-10-16T15:15:43;22.08;;;18.88;;
21727;SDS011;11026;50.560;17.852;2022-10-16T15:18:12;20.90;;;17.92;;
21727;SDS011;11026;50.560;17.852;2022-10-16T15:20:41;21.42;;;18.65;;
21727;SDS011;11026;50.560;17.852;2022-10-16T15:23:26;20.50;;;18.23;;
21727;SDS011;11026;50.560;17.852;2022-10-16T15:25:54;21.33;;;18.35;;
21727;SDS011;11026;50.560;17.852;2022-10-16T15:28:22;25.42;;;20.60;;
21727;SDS011;11026;50.560;17.852;2022-10-16T15:30:52;21.20;;;18.33;;
21727;SDS011;11026;50.560;17.852;2022-10-16T15:33:22;21.25;;;18.30;;
21727;SDS011;11026;50.560;17.852;2022-10-16T15:35:51;21.20;;;18.88;;
21727;SDS011;11026;50.560;17.852;2022-10-16T15:38:21;22.55;;;19.55;;
21727;SDS011;11026;50.560;17.852;2022-10-16T15:40:51;22.45;;;18.67;;
21727;SDS011;11026;50.560;17.852;2022-10-16T15:43:18;23.13;;;19.70;;
21727;SDS011;11026;50.560;17.852;2022-10-16T15:46:19;22.55;;;18.80;;
21727;SDS011;11026;50.560;17.852;2022-10-16T15:48:41;22.35;;;18.85;;
21727;SDS011;11026;50.560;17.852;2022-10-16T15:51:08;26.25;;;18.92;;
21727;SDS011;11026;50.560;17.852;2022-10-16T15:53:36;24.48;;;20.75;;
21727;SDS011;11026;50.560;17.852;2022-10-16T15:56:03;27.35;;;21.27;;
21727;SDS011;11026;50.560;17.852;2022-10-16T15:58:31;25.42;;;22.60;;
21727;SDS011;11026;50.560;17.852;2022-10-16T16:00:58;35.10;;;25.52;;
21727;SDS011;11026;50.560;17.852;2022-10-16T16:03:30;27.15;;;20.95;;
21727;SDS011;11026;50.560;17.852;2022-10-16T16:05:58;23.73;;;20.60;;
21727;SDS011;11026;50.560;17.852;2022-10-16T16:08:29;22.10;;;19.42;;
21727;SDS011;11026;50.560;17.852;2022-10-16T16:11:15;26.83;;;19.45;;
21727;SDS011;11026;50.560;17.852;2022-10-16T16:13:43;23.55;;;19.85;;
21727;SDS011;11026;50.560;17.852;2022-10-16T16:16:11;24.17;;;20.15;;
21727;SDS011;11026;50.560;17.852;2022-10-16T16:18:40;25.25;;;21.02;;
21727;SDS011;11026;50.560;17.852;2022-10-16T16:21:09;26.40;;;21.05;;
21727;SDS011;11026;50.560;17.852;2022-10-16T16:23:37;25.58;;;20.58;;
21727;SDS011;11026;50.560;17.852;2022-10-16T16:28:38;28.02;;;21.00;;
21727;SDS011;11026;50.560;17.852;2022-10-16T16:31:06;37.53;;;23.08;;
21727;SDS011;11026;50.560;17.852;2022-10-16T16:33:33;26.30;;;19.58;;
21727;SDS011;11026;50.560;17.852;2022-10-16T16:36:02;26.85;;;20.85;;
21727;SDS011;11026;50.560;17.852;2022-10-16T16:38:39;25.38;;;20.70;;
21727;SDS011;11026;50.560;17.852;2022-10-16T16:41:26;26.63;;;19.92;;
21727;SDS011;11026;50.560;17.852;2022-10-16T16:43:55;24.75;;;19.77;;
21727;SDS011;11026;50.560;17.852;2022-10-16T16:46:27;25.70;;;19.77;;
21727;SDS011;11026;50.560;17.852;2022-10-16T16:48:54;24.85;;;20.40;;